createdAt,value
2022-09-23T00:00:35.037Z,0
2022-09-23T00:01:40.177Z,0
2022-09-23T00:02:46.329Z,0
2022-09-23T00:03:52.513Z,0
2022-09-23T00:04:58.681Z,0
2022-09-23T00:06:04.837Z,0
2022-09-23T00:07:11.024Z,0
2022-09-23T00:08:17.201Z,0
2022-09-23T00:09:23.395Z,0
2022-09-23T00:10:29.519Z,0
2022-09-23T00:11:35.732Z,0
2022-09-23T00:12:41.868Z,0
2022-09-23T00:13:48.043Z,0
2022-09-23T00:14:54.254Z,0
2022-09-23T00:15:59.383Z,0
2022-09-23T00:17:05.575Z,0
2022-09-23T00:18:11.756Z,0
2022-09-23T00:19:17.888Z,0
2022-09-23T00:20:24.102Z,0
2022-09-23T00:21:30.288Z,0
2022-09-23T00:22:36.456Z,0
2022-09-23T00:23:42.623Z,0
2022-09-23T00:24:48.742Z,0
2022-09-23T00:25:54.931Z,0
2022-09-23T00:27:01.103Z,0
2022-09-23T00:28:07.268Z,0
2022-09-23T00:29:13.457Z,0
2022-09-23T00:30:18.650Z,0
2022-09-23T00:31:24.777Z,0
2022-09-23T00:32:30.960Z,0
2022-09-23T00:33:37.198Z,0
2022-09-23T00:34:43.309Z,0
2022-09-23T00:35:49.483Z,0
2022-09-23T00:36:54.656Z,0
2022-09-23T00:38:00.831Z,0
2022-09-23T00:39:07.071Z,0
2022-09-23T00:40:13.174Z,0
2022-09-23T00:41:19.355Z,0
2022-09-23T00:42:25.521Z,0
2022-09-23T00:43:31.682Z,0
2022-09-23T00:44:37.843Z,0
2022-09-23T00:45:44.040Z,0
2022-09-23T00:46:50.220Z,0
2022-09-23T00:47:56.381Z,0
2022-09-23T00:49:02.618Z,0
2022-09-23T00:50:08.729Z,0
2022-09-23T00:51:13.912Z,0
2022-09-23T00:52:20.044Z,0
2022-09-23T00:53:26.270Z,0
2022-09-23T00:54:32.400Z,0
2022-09-23T00:55:38.563Z,0
2022-09-23T00:56:44.808Z,0
2022-09-23T00:57:50.931Z,0
2022-09-23T00:58:57.113Z,0
2022-09-23T01:00:03.256Z,0
2022-09-23T01:01:09.418Z,0
2022-09-23T01:02:15.573Z,0
2022-09-23T01:03:21.755Z,0
2022-09-23T01:04:27.967Z,0
2022-09-23T01:05:33.112Z,0
2022-09-23T01:06:39.303Z,0
2022-09-23T01:07:45.445Z,0
2022-09-23T01:08:51.641Z,0
2022-09-23T01:09:57.785Z,0
2022-09-23T01:11:03.962Z,0
2022-09-23T01:12:10.130Z,0
2022-09-23T01:13:16.303Z,0
2022-09-23T01:14:22.466Z,0
2022-09-23T01:15:28.646Z,0
2022-09-23T01:16:34.815Z,0
2022-09-23T01:17:40.980Z,0
2022-09-23T01:18:47.174Z,0
2022-09-23T01:19:52.335Z,0
2022-09-23T01:20:58.557Z,0
2022-09-23T01:22:04.678Z,0
2022-09-23T01:23:10.867Z,0
2022-09-23T01:24:17.007Z,0
2022-09-23T01:25:23.191Z,0
2022-09-23T01:26:29.441Z,0
2022-09-23T01:27:35.534Z,0
2022-09-23T01:28:41.731Z,0
2022-09-23T01:29:47.873Z,0
2022-09-23T01:30:54.089Z,0
2022-09-23T01:32:00.229Z,0
2022-09-23T01:33:06.399Z,0
2022-09-23T01:34:11.604Z,0
2022-09-23T01:35:17.737Z,0
2022-09-23T01:36:23.937Z,0
2022-09-23T01:37:30.062Z,0
2022-09-23T01:38:36.290Z,0
2022-09-23T01:39:42.441Z,0
2022-09-23T01:40:48.571Z,0
2022-09-23T01:41:54.811Z,0
2022-09-23T01:43:00.978Z,0
2022-09-23T01:44:07.104Z,0
2022-09-23T01:45:13.265Z,0
2022-09-23T01:46:19.437Z,0
2022-09-23T01:47:25.622Z,0
2022-09-23T01:48:30.780Z,0
2022-09-23T01:49:36.994Z,0
2022-09-23T01:50:43.124Z,0
2022-09-23T01:51:49.289Z,0
2022-09-23T01:52:55.575Z,0
2022-09-23T01:54:01.632Z,0
2022-09-23T01:55:07.814Z,0
2022-09-23T01:56:13.979Z,0
2022-09-23T01:57:20.161Z,0
2022-09-23T01:58:26.395Z,0
2022-09-23T01:59:32.481Z,0
2022-09-23T02:00:38.664Z,0
2022-09-23T02:01:44.842Z,0
2022-09-23T02:02:50.003Z,0
2022-09-23T02:03:56.188Z,0
2022-09-23T02:05:02.349Z,0
2022-09-23T02:06:08.549Z,0
2022-09-23T02:08:20.875Z,0
2022-09-23T02:09:27.031Z,0
2022-09-23T02:11:39.395Z,0
2022-09-23T02:12:45.576Z,0
2022-09-23T02:13:51.714Z,0
2022-09-23T02:14:57.880Z,0
2022-09-23T02:16:04.123Z,0
2022-09-23T02:17:09.225Z,0
2022-09-23T02:18:15.414Z,0
2022-09-23T02:19:21.575Z,0
2022-09-23T02:20:27.749Z,0
2022-09-23T02:21:33.923Z,0
2022-09-23T02:22:40.112Z,0
2022-09-23T02:23:46.264Z,0
2022-09-23T02:24:52.429Z,0
2022-09-23T02:25:58.601Z,0
2022-09-23T02:27:04.760Z,0
2022-09-23T02:28:10.927Z,0
2022-09-23T02:29:17.107Z,0
2022-09-23T02:30:23.311Z,0
2022-09-23T02:31:28.480Z,0
2022-09-23T02:32:34.696Z,0
2022-09-23T02:33:40.837Z,0
2022-09-23T02:34:46.968Z,0
2022-09-23T02:35:53.159Z,0
2022-09-23T02:36:59.318Z,0
2022-09-23T02:38:05.471Z,0
2022-09-23T02:39:11.757Z,0
2022-09-23T02:40:17.837Z,0
2022-09-23T02:41:23.993Z,0
2022-09-23T02:42:30.155Z,0
2022-09-23T02:43:36.333Z,0
2022-09-23T02:44:42.543Z,0
2022-09-23T02:45:47.698Z,0
2022-09-23T02:46:53.896Z,0
2022-09-23T02:48:00.116Z,0
2022-09-23T02:49:06.209Z,0
2022-09-23T02:50:12.385Z,0
2022-09-23T02:51:18.535Z,0
2022-09-23T02:52:24.753Z,0
2022-09-23T02:53:30.929Z,0
2022-09-23T02:54:37.044Z,0
2022-09-23T02:55:43.225Z,0
2022-09-23T02:56:49.400Z,0
2022-09-23T02:57:55.557Z,0
2022-09-23T02:59:01.742Z,0
2022-09-23T03:00:06.916Z,0
2022-09-23T03:01:13.084Z,0
2022-09-23T03:02:19.256Z,0
2022-09-23T03:03:25.421Z,0
2022-09-23T03:04:31.604Z,0
2022-09-23T03:05:37.838Z,0
2022-09-23T03:06:43.969Z,0
2022-09-23T03:07:50.106Z,0
2022-09-23T03:08:56.346Z,0
2022-09-23T03:10:02.465Z,0
2022-09-23T03:11:08.618Z,0
2022-09-23T03:12:14.797Z,0
2022-09-23T03:13:20.949Z,0
2022-09-23T03:14:26.146Z,0
2022-09-23T03:15:32.321Z,0
2022-09-23T03:16:38.513Z,0
2022-09-23T03:17:44.640Z,0
2022-09-23T03:18:50.810Z,0
2022-09-23T03:19:57.003Z,0
2022-09-23T03:21:03.164Z,0
2022-09-23T03:22:09.335Z,0
2022-09-23T03:23:15.503Z,0
2022-09-23T03:24:21.657Z,0
2022-09-23T03:25:27.839Z,0
2022-09-23T03:26:33.998Z,0
2022-09-23T03:27:40.183Z,0
2022-09-23T03:28:45.397Z,0
2022-09-23T03:29:51.562Z,0
2022-09-23T03:30:57.712Z,0
2022-09-23T03:32:03.864Z,0
2022-09-23T03:33:10.143Z,0
2022-09-23T03:34:16.372Z,0
2022-09-23T03:35:22.400Z,0
2022-09-23T03:36:28.565Z,0
2022-09-23T03:37:34.740Z,0
2022-09-23T03:38:40.969Z,0
2022-09-23T03:39:47.072Z,0
2022-09-23T03:40:53.276Z,0
2022-09-23T03:41:59.482Z,0
2022-09-23T03:43:04.590Z,0
2022-09-23T03:44:10.791Z,0
2022-09-23T03:45:16.931Z,0
2022-09-23T03:46:23.173Z,0
2022-09-23T03:47:29.274Z,0
2022-09-23T03:48:35.446Z,0
2022-09-23T03:49:41.628Z,0
2022-09-23T03:50:47.880Z,0
2022-09-23T03:51:53.950Z,0
2022-09-23T03:53:00.178Z,0
2022-09-23T03:54:06.295Z,0
2022-09-23T03:55:12.469Z,0
2022-09-23T03:56:18.623Z,0
2022-09-23T03:57:23.819Z,0
2022-09-23T03:58:29.977Z,0
2022-09-23T03:59:36.257Z,0
2022-09-23T04:00:42.317Z,0
2022-09-23T04:01:48.493Z,0
2022-09-23T04:02:54.734Z,0
2022-09-23T04:04:00.828Z,0
2022-09-23T04:05:06.997Z,0
2022-09-23T04:06:13.182Z,0
2022-09-23T04:07:19.355Z,0
2022-09-23T04:08:25.515Z,0
2022-09-23T04:09:31.694Z,0
2022-09-23T04:10:37.861Z,0
2022-09-23T04:11:43.053Z,0
2022-09-23T04:12:49.214Z,0
2022-09-23T04:13:55.380Z,0
2022-09-23T04:15:01.559Z,0
2022-09-23T04:16:07.713Z,0
2022-09-23T04:17:13.939Z,0
2022-09-23T04:18:19.093Z,0
2022-09-23T04:19:25.279Z,0
2022-09-23T04:20:31.412Z,0
2022-09-23T04:21:37.587Z,0
2022-09-23T04:22:43.799Z,0
2022-09-23T04:23:49.944Z,0
2022-09-23T04:24:56.107Z,0
2022-09-23T04:26:02.303Z,0
2022-09-23T04:27:08.437Z,0
2022-09-23T04:28:14.616Z,0
2022-09-23T04:29:20.785Z,0
2022-09-23T04:30:26.961Z,0
2022-09-23T04:31:33.133Z,0
2022-09-23T04:32:38.325Z,0
2022-09-23T04:33:44.491Z,0
2022-09-23T04:34:50.656Z,0
2022-09-23T04:35:56.825Z,0
2022-09-23T04:37:02.979Z,0
2022-09-23T04:38:09.161Z,0
2022-09-23T04:39:15.332Z,0
2022-09-23T04:40:21.503Z,0
2022-09-23T04:41:27.682Z,0
2022-09-23T04:42:33.890Z,0
2022-09-23T04:43:40.069Z,0
2022-09-23T04:44:46.207Z,0
2022-09-23T04:45:52.348Z,0
2022-09-23T04:46:57.528Z,0
2022-09-23T04:48:03.701Z,0
2022-09-23T04:49:09.875Z,0
2022-09-23T04:50:16.065Z,0
2022-09-23T04:51:22.204Z,0
2022-09-23T04:52:28.384Z,0
2022-09-23T04:53:34.547Z,0
2022-09-23T04:54:40.725Z,0
2022-09-23T04:55:46.894Z,0
2022-09-23T04:56:53.065Z,0
2022-09-23T04:57:59.234Z,0
2022-09-23T04:59:05.400Z,0
2022-09-23T05:00:11.574Z,0
2022-09-23T05:01:16.758Z,0
2022-09-23T05:02:22.915Z,0
2022-09-23T05:03:29.134Z,0
2022-09-23T05:04:35.258Z,0
2022-09-23T05:05:41.501Z,0
2022-09-23T05:06:47.617Z,0
2022-09-23T05:07:53.786Z,0
2022-09-23T05:08:59.938Z,5
2022-09-23T05:10:06.111Z,5
2022-09-23T05:11:12.286Z,5
2022-09-23T05:12:18.553Z,5
2022-09-23T05:13:24.630Z,5
2022-09-23T05:14:30.806Z,5
2022-09-23T05:15:36.009Z,11
2022-09-23T05:16:42.154Z,11
2022-09-23T05:17:48.314Z,11
2022-09-23T05:18:54.490Z,11
2022-09-23T05:20:00.675Z,11
2022-09-23T05:21:06.837Z,11
2022-09-23T05:22:12.990Z,16
2022-09-23T05:23:19.162Z,16
2022-09-23T05:24:25.342Z,16
2022-09-23T05:25:31.530Z,22
2022-09-23T05:26:37.724Z,22
2022-09-23T05:27:43.841Z,28
2022-09-23T05:28:50.022Z,28
2022-09-23T05:29:55.216Z,28
2022-09-23T05:31:01.375Z,33
2022-09-23T05:32:07.532Z,39
2022-09-23T05:33:13.708Z,39
2022-09-23T05:34:19.878Z,45
2022-09-23T05:35:26.053Z,50
2022-09-23T05:36:32.226Z,50
2022-09-23T05:37:38.418Z,50
2022-09-23T05:38:44.563Z,50
2022-09-23T05:39:50.856Z,56
2022-09-23T05:40:56.882Z,56
2022-09-23T05:42:03.062Z,61
2022-09-23T05:43:09.238Z,61
2022-09-23T05:44:14.410Z,61
2022-09-23T05:45:20.604Z,61
2022-09-23T05:46:26.760Z,67
2022-09-23T05:47:32.922Z,67
2022-09-23T05:48:39.098Z,73
2022-09-23T05:49:45.290Z,73
2022-09-23T05:50:51.434Z,73
2022-09-23T05:51:57.632Z,73
2022-09-23T05:53:03.779Z,73
2022-09-23T05:54:09.950Z,78
2022-09-23T05:55:16.147Z,78
2022-09-23T05:56:22.396Z,84
2022-09-23T05:57:28.460Z,84
2022-09-23T05:58:33.635Z,84
2022-09-23T05:59:39.902Z,84
2022-09-23T06:00:45.985Z,90
2022-09-23T06:01:52.225Z,90
2022-09-23T06:02:58.343Z,95
2022-09-23T06:04:04.580Z,95
2022-09-23T06:05:10.720Z,95
2022-09-23T06:06:16.865Z,95
2022-09-23T06:07:22.983Z,101
2022-09-23T06:08:29.198Z,101
2022-09-23T06:09:35.345Z,101
2022-09-23T06:10:41.621Z,106
2022-09-23T06:11:47.729Z,106
2022-09-23T06:12:52.907Z,106
2022-09-23T06:13:59.088Z,112
2022-09-23T06:15:05.233Z,112
2022-09-23T06:16:11.409Z,112
2022-09-23T06:17:17.614Z,112
2022-09-23T06:18:23.766Z,112
2022-09-23T06:19:29.958Z,118
2022-09-23T06:20:36.079Z,118
2022-09-23T06:21:42.312Z,118
2022-09-23T06:22:48.588Z,123
2022-09-23T06:23:54.551Z,123
2022-09-23T06:25:00.721Z,123
2022-09-23T06:26:06.947Z,129
2022-09-23T06:27:12.124Z,129
2022-09-23T06:28:18.299Z,129
2022-09-23T06:29:24.482Z,129
2022-09-23T06:30:30.577Z,129
2022-09-23T06:31:36.757Z,129
2022-09-23T06:32:42.930Z,129
2022-09-23T06:33:49.092Z,129
2022-09-23T06:34:55.266Z,129
2022-09-23T06:36:01.425Z,129
2022-09-23T06:37:07.603Z,129
2022-09-23T06:38:13.796Z,129
2022-09-23T06:39:19.942Z,129
2022-09-23T06:40:26.127Z,129
2022-09-23T06:41:31.304Z,129
2022-09-23T06:42:37.470Z,129
2022-09-23T06:43:43.637Z,129
2022-09-23T06:44:49.796Z,135
2022-09-23T06:45:55.984Z,135
2022-09-23T06:47:02.160Z,135
2022-09-23T06:48:08.331Z,135
2022-09-23T06:49:14.487Z,140
2022-09-23T06:50:20.660Z,140
2022-09-23T06:51:26.824Z,140
2022-09-23T06:52:33.008Z,146
2022-09-23T06:53:39.169Z,146
2022-09-23T06:54:45.345Z,146
2022-09-23T06:55:50.538Z,151
2022-09-23T06:56:56.680Z,151
2022-09-23T06:58:02.854Z,151
2022-09-23T06:59:09.044Z,157
2022-09-23T07:00:15.205Z,157
2022-09-23T07:01:21.366Z,157
2022-09-23T07:02:27.553Z,163
2022-09-23T07:03:33.707Z,163
2022-09-23T07:04:39.872Z,163
2022-09-23T07:05:46.047Z,163
2022-09-23T07:06:52.214Z,168
2022-09-23T07:07:58.375Z,168
2022-09-23T07:09:04.556Z,174
2022-09-23T07:10:09.781Z,174
2022-09-23T07:11:15.902Z,180
2022-09-23T07:12:22.077Z,185
2022-09-23T07:13:28.257Z,191
2022-09-23T07:14:34.408Z,196
2022-09-23T07:15:40.589Z,202
2022-09-23T07:16:46.768Z,208
2022-09-23T07:17:52.920Z,213
2022-09-23T07:18:59.089Z,258
2022-09-23T07:20:05.262Z,309
2022-09-23T07:21:11.425Z,320
2022-09-23T07:22:17.630Z,348
2022-09-23T07:23:23.782Z,376
2022-09-23T07:24:28.968Z,405
2022-09-23T07:25:35.135Z,399
2022-09-23T07:26:41.307Z,405
2022-09-23T07:27:47.471Z,410
2022-09-23T07:28:53.687Z,405
2022-09-23T07:29:59.841Z,405
2022-09-23T07:31:05.991Z,427
2022-09-23T07:32:12.163Z,421
2022-09-23T07:33:18.374Z,382
2022-09-23T07:34:24.524Z,388
2022-09-23T07:35:30.657Z,393
2022-09-23T07:36:36.834Z,388
2022-09-23T07:37:42.997Z,376
2022-09-23T07:38:48.228Z,360
2022-09-23T07:39:54.340Z,331
2022-09-23T07:41:00.529Z,303
2022-09-23T07:42:06.681Z,303
2022-09-23T07:43:12.842Z,309
2022-09-23T07:44:19.027Z,270
2022-09-23T07:45:25.194Z,264
2022-09-23T07:46:31.368Z,258
2022-09-23T07:47:37.535Z,253
2022-09-23T07:48:43.700Z,247
2022-09-23T07:49:49.873Z,247
2022-09-23T07:50:56.052Z,241
2022-09-23T07:52:02.218Z,241
2022-09-23T07:54:13.579Z,230
2022-09-23T07:55:19.732Z,230
2022-09-23T07:56:25.901Z,236
2022-09-23T07:57:32.078Z,247
2022-09-23T07:58:38.251Z,241
2022-09-23T07:59:43.432Z,230
2022-09-23T08:00:49.596Z,230
2022-09-23T08:01:55.779Z,230
2022-09-23T08:03:01.943Z,230
2022-09-23T08:04:08.104Z,230
2022-09-23T08:05:14.275Z,230
2022-09-23T08:06:20.450Z,230
2022-09-23T08:07:26.605Z,230
2022-09-23T08:08:32.796Z,230
2022-09-23T08:09:38.944Z,236
2022-09-23T08:10:45.125Z,236
2022-09-23T08:11:51.287Z,241
2022-09-23T08:12:57.457Z,230
2022-09-23T08:14:02.640Z,225
2022-09-23T08:15:08.825Z,230
2022-09-23T08:16:14.991Z,230
2022-09-23T08:17:21.147Z,236
2022-09-23T08:18:27.308Z,241
2022-09-23T08:19:33.489Z,247
2022-09-23T08:20:39.657Z,247
2022-09-23T08:21:45.824Z,258
2022-09-23T08:22:51.997Z,264
2022-09-23T08:23:58.170Z,275
2022-09-23T08:25:04.382Z,382
2022-09-23T08:26:10.542Z,528
2022-09-23T08:27:16.676Z,540
2022-09-23T08:28:21.865Z,573
2022-09-23T08:29:28.026Z,641
2022-09-23T08:30:34.209Z,607
2022-09-23T08:31:40.378Z,748
2022-09-23T08:32:46.535Z,832
2022-09-23T08:33:52.713Z,849
2022-09-23T08:34:58.941Z,838
2022-09-23T08:36:05.044Z,810
2022-09-23T08:37:11.199Z,860
2022-09-23T08:38:17.395Z,866
2022-09-23T08:39:23.599Z,849
2022-09-23T08:40:29.731Z,888
2022-09-23T08:41:35.883Z,826
2022-09-23T08:42:41.078Z,843
2022-09-23T08:43:47.258Z,832
2022-09-23T08:44:53.437Z,810
2022-09-23T08:45:59.595Z,849
2022-09-23T08:47:05.754Z,810
2022-09-23T08:48:11.931Z,765
2022-09-23T08:49:18.110Z,770
2022-09-23T08:50:24.267Z,838
2022-09-23T08:51:30.449Z,843
2022-09-23T08:52:36.605Z,849
2022-09-23T08:53:42.769Z,855
2022-09-23T08:54:48.952Z,826
2022-09-23T08:55:55.117Z,866
2022-09-23T08:57:00.296Z,765
2022-09-23T08:58:06.463Z,860
2022-09-23T08:59:12.646Z,860
2022-09-23T09:00:18.805Z,967
2022-09-23T09:01:24.986Z,984
2022-09-23T09:02:31.139Z,995
2022-09-23T09:03:37.316Z,1091
2022-09-23T09:04:43.490Z,1080
2022-09-23T09:05:49.656Z,1012
2022-09-23T09:06:55.820Z,1012
2022-09-23T09:08:01.987Z,1158
2022-09-23T09:09:08.167Z,1209
2022-09-23T09:10:14.344Z,1136
2022-09-23T09:11:19.506Z,1023
2022-09-23T09:12:25.685Z,1018
2022-09-23T09:13:31.858Z,1074
2022-09-23T09:14:38.025Z,978
2022-09-23T09:15:44.193Z,990
2022-09-23T09:16:50.465Z,1029
2022-09-23T09:17:56.519Z,1074
2022-09-23T09:19:02.688Z,1136
2022-09-23T09:20:08.873Z,1080
2022-09-23T09:21:15.045Z,1046
2022-09-23T09:22:21.253Z,1057
2022-09-23T09:23:27.385Z,1085
2022-09-23T09:24:33.546Z,1085
2022-09-23T09:25:38.748Z,1130
2022-09-23T09:26:45.015Z,1085
2022-09-23T09:27:51.085Z,1068
2022-09-23T09:28:57.380Z,1046
2022-09-23T09:30:03.411Z,1074
2022-09-23T09:31:09.574Z,1125
2022-09-23T09:32:15.831Z,1125
2022-09-23T09:33:21.916Z,1125
2022-09-23T09:34:28.109Z,1096
2022-09-23T09:35:34.277Z,1130
2022-09-23T09:36:40.470Z,1147
2022-09-23T09:37:46.604Z,1141
2022-09-23T09:38:52.826Z,1181
2022-09-23T09:39:57.964Z,1074
2022-09-23T09:41:04.139Z,1096
2022-09-23T09:42:10.317Z,1091
2022-09-23T09:43:16.471Z,1096
2022-09-23T09:44:22.647Z,1080
2022-09-23T09:45:28.809Z,1063
2022-09-23T09:46:34.966Z,984
2022-09-23T09:47:41.147Z,1029
2022-09-23T09:48:47.311Z,1091
2022-09-23T09:49:53.481Z,1091
2022-09-23T09:50:59.703Z,1119
2022-09-23T09:52:05.829Z,1186
2022-09-23T09:53:11.958Z,1074
2022-09-23T09:54:17.117Z,1006
2022-09-23T09:55:23.306Z,1108
2022-09-23T09:56:29.460Z,1175
2022-09-23T09:57:35.633Z,1231
2022-09-23T09:58:41.798Z,1220
2022-09-23T09:59:47.964Z,1243
2022-09-23T10:00:54.139Z,1136
2022-09-23T10:02:00.298Z,1012
2022-09-23T10:03:06.484Z,1012
2022-09-23T10:04:12.653Z,978
2022-09-23T10:05:18.827Z,1085
2022-09-23T10:06:24.994Z,1102
2022-09-23T10:07:31.151Z,1091
2022-09-23T10:08:36.330Z,1198
2022-09-23T10:09:42.512Z,1119
2022-09-23T10:10:48.679Z,1136
2022-09-23T10:11:54.845Z,1147
2022-09-23T10:13:01.029Z,1130
2022-09-23T10:14:07.201Z,1170
2022-09-23T10:15:13.358Z,1051
2022-09-23T10:16:19.538Z,1074
2022-09-23T10:17:25.693Z,1175
2022-09-23T10:18:31.864Z,1243
2022-09-23T10:19:38.087Z,1271
2022-09-23T10:20:44.207Z,1175
2022-09-23T10:22:56.545Z,1170
2022-09-23T10:24:01.732Z,1226
2022-09-23T10:25:07.894Z,1215
2022-09-23T10:26:14.083Z,1153
2022-09-23T10:27:20.256Z,1198
2022-09-23T10:28:26.420Z,1186
2022-09-23T10:29:32.579Z,1231
2022-09-23T10:30:38.750Z,1220
2022-09-23T10:31:44.926Z,1237
2022-09-23T10:32:51.105Z,1119
2022-09-23T10:33:57.258Z,1057
2022-09-23T10:35:03.441Z,1119
2022-09-23T10:36:09.607Z,1113
2022-09-23T10:37:15.780Z,1096
2022-09-23T10:38:20.958Z,1063
2022-09-23T10:39:27.126Z,1119
2022-09-23T10:40:33.291Z,1147
2022-09-23T10:41:39.487Z,1164
2022-09-23T10:42:45.634Z,1209
2022-09-23T10:43:51.809Z,1130
2022-09-23T10:44:57.994Z,1125
2022-09-23T10:46:04.156Z,1192
2022-09-23T10:47:10.329Z,1248
2022-09-23T10:48:16.486Z,1158
2022-09-23T10:49:22.668Z,1198
2022-09-23T10:50:28.840Z,1192
2022-09-23T10:51:35.012Z,1164
2022-09-23T10:52:40.206Z,1125
2022-09-23T10:53:46.363Z,1085
2022-09-23T10:54:52.538Z,1130
2022-09-23T10:55:58.702Z,1096
2022-09-23T10:57:04.879Z,1175
2022-09-23T10:58:11.035Z,1125
2022-09-23T10:59:17.222Z,1170
2022-09-23T11:00:23.368Z,1209
2022-09-23T11:01:29.555Z,1248
2022-09-23T11:02:35.723Z,1220
2022-09-23T11:03:41.934Z,1181
2022-09-23T11:04:48.065Z,1220
2022-09-23T11:05:54.225Z,1209
2022-09-23T11:06:59.431Z,1209
2022-09-23T11:08:05.594Z,1209
2022-09-23T11:09:11.784Z,1231
2022-09-23T11:10:17.920Z,1209
2022-09-23T11:11:24.148Z,1175
2022-09-23T11:12:30.263Z,1147
2022-09-23T11:13:36.480Z,1175
2022-09-23T11:14:42.607Z,1181
2022-09-23T11:15:48.779Z,1136
2022-09-23T11:16:54.967Z,1130
2022-09-23T11:18:01.122Z,1136
2022-09-23T11:19:07.295Z,1147
2022-09-23T11:20:13.468Z,1113
2022-09-23T11:21:18.647Z,1074
2022-09-23T11:22:24.824Z,1096
2022-09-23T11:23:30.997Z,1057
2022-09-23T11:24:37.162Z,1023
2022-09-23T11:25:43.343Z,990
2022-09-23T11:26:49.490Z,1006
2022-09-23T11:27:55.680Z,1068
2022-09-23T11:29:01.831Z,1136
2022-09-23T11:30:08.005Z,1170
2022-09-23T11:31:14.179Z,1125
2022-09-23T11:32:20.368Z,1068
2022-09-23T11:33:26.528Z,1040
2022-09-23T11:34:32.696Z,978
2022-09-23T11:35:37.884Z,1001
2022-09-23T11:36:44.042Z,1040
2022-09-23T11:37:50.226Z,1057
2022-09-23T11:38:56.379Z,1074
2022-09-23T11:40:02.565Z,731
2022-09-23T11:41:07.758Z,410
2022-09-23T11:42:13.934Z,382
2022-09-23T11:43:20.086Z,511
2022-09-23T11:44:26.267Z,1023
2022-09-23T11:45:32.430Z,1153
2022-09-23T11:46:38.598Z,1125
2022-09-23T11:47:44.757Z,1006
2022-09-23T11:48:50.937Z,1102
2022-09-23T11:49:57.110Z,1080
2022-09-23T11:51:03.294Z,1046
2022-09-23T11:52:09.449Z,1029
2022-09-23T11:53:15.624Z,1035
2022-09-23T11:54:21.794Z,1057
2022-09-23T11:55:27.071Z,1040
2022-09-23T11:56:33.299Z,1063
2022-09-23T11:57:39.469Z,1074
2022-09-23T11:58:45.645Z,1125
2022-09-23T11:59:51.653Z,1102
2022-09-23T12:00:57.955Z,1108
2022-09-23T12:02:04.033Z,990
2022-09-23T12:03:10.163Z,1091
2022-09-23T12:04:16.450Z,1108
2022-09-23T12:05:22.496Z,1113
2022-09-23T12:06:28.673Z,1074
2022-09-23T12:07:34.833Z,1057
2022-09-23T12:08:41.063Z,1051
2022-09-23T12:09:46.191Z,1018
2022-09-23T12:10:52.380Z,961
2022-09-23T12:11:58.556Z,978
2022-09-23T12:13:04.801Z,984
2022-09-23T12:14:10.881Z,855
2022-09-23T12:15:17.069Z,911
2022-09-23T12:16:23.229Z,871
2022-09-23T12:17:29.481Z,939
2022-09-23T12:18:35.684Z,933
2022-09-23T12:19:41.741Z,939
2022-09-23T12:20:47.991Z,1001
2022-09-23T12:21:54.203Z,1029
2022-09-23T12:23:00.243Z,973
2022-09-23T12:24:05.440Z,922
2022-09-23T12:25:11.834Z,939
2022-09-23T12:26:17.912Z,900
2022-09-23T12:27:23.948Z,1012
2022-09-23T12:28:30.218Z,1001
2022-09-23T12:29:36.438Z,832
2022-09-23T12:30:42.602Z,961
2022-09-23T12:31:48.756Z,956
2022-09-23T12:32:54.780Z,916
2022-09-23T12:34:01.128Z,939
2022-09-23T12:35:07.174Z,916
2022-09-23T12:36:13.540Z,1012
2022-09-23T12:37:19.577Z,984
2022-09-23T12:38:24.808Z,922
2022-09-23T12:39:30.960Z,911
2022-09-23T12:40:37.183Z,832
2022-09-23T12:41:43.297Z,804
2022-09-23T12:42:49.486Z,787
2022-09-23T12:43:55.608Z,843
2022-09-23T12:45:01.778Z,860
2022-09-23T12:46:07.970Z,815
2022-09-23T12:47:14.147Z,787
2022-09-23T12:48:20.215Z,776
2022-09-23T12:49:26.468Z,826
2022-09-23T12:50:32.672Z,804
2022-09-23T12:51:38.829Z,731
2022-09-23T12:52:43.997Z,725
2022-09-23T12:53:50.037Z,731
2022-09-23T12:54:56.262Z,776
2022-09-23T12:56:02.486Z,781
2022-09-23T12:57:08.635Z,759
2022-09-23T12:58:14.877Z,697
2022-09-23T12:59:21.030Z,787
2022-09-23T13:00:27.139Z,849
2022-09-23T13:01:33.246Z,860
2022-09-23T13:02:39.549Z,759
2022-09-23T13:03:45.587Z,787
2022-09-23T13:04:51.806Z,765
2022-09-23T13:05:58.061Z,815
2022-09-23T13:07:03.090Z,810
2022-09-23T13:08:09.408Z,798
2022-09-23T13:09:15.591Z,815
2022-09-23T13:10:21.737Z,793
2022-09-23T13:11:27.920Z,815
2022-09-23T13:12:34.097Z,849
2022-09-23T13:13:40.257Z,821
2022-09-23T13:14:46.444Z,720
2022-09-23T13:15:52.620Z,765
2022-09-23T13:16:58.785Z,720
2022-09-23T13:18:04.947Z,663
2022-09-23T13:19:11.080Z,691
2022-09-23T13:20:17.277Z,680
2022-09-23T13:21:22.471Z,646
2022-09-23T13:23:34.786Z,556
2022-09-23T13:24:40.986Z,472
2022-09-23T13:25:47.162Z,450
2022-09-23T13:26:53.317Z,410
2022-09-23T13:27:59.476Z,382
2022-09-23T13:29:05.650Z,388
2022-09-23T13:30:11.771Z,433
2022-09-23T13:31:17.956Z,534
2022-09-23T13:32:24.170Z,506
2022-09-23T13:33:30.338Z,433
2022-09-23T13:34:36.511Z,410
2022-09-23T13:35:41.697Z,450
2022-09-23T13:36:47.846Z,365
2022-09-23T13:37:54.011Z,376
2022-09-23T13:39:00.210Z,365
2022-09-23T13:40:06.202Z,343
2022-09-23T13:41:12.485Z,360
2022-09-23T13:42:18.646Z,466
2022-09-23T13:43:24.877Z,399
2022-09-23T13:44:31.001Z,405
2022-09-23T13:45:37.187Z,461
2022-09-23T13:46:43.375Z,466
2022-09-23T13:47:49.513Z,416
2022-09-23T13:48:55.727Z,421
2022-09-23T13:50:00.915Z,450
2022-09-23T13:51:07.067Z,455
2022-09-23T13:52:13.223Z,461
2022-09-23T13:53:19.411Z,461
2022-09-23T13:54:25.585Z,427
2022-09-23T13:55:31.748Z,444
2022-09-23T13:56:37.906Z,421
2022-09-23T13:57:44.020Z,416
2022-09-23T13:58:50.247Z,410
2022-09-23T13:59:56.404Z,388
2022-09-23T14:01:02.593Z,376
2022-09-23T14:02:08.765Z,371
2022-09-23T14:03:14.932Z,360
2022-09-23T14:04:20.102Z,354
2022-09-23T14:05:26.273Z,343
2022-09-23T14:06:32.461Z,337
2022-09-23T14:07:38.589Z,326
2022-09-23T14:08:44.794Z,320
2022-09-23T14:09:50.916Z,315
2022-09-23T14:10:57.128Z,303
2022-09-23T14:12:03.307Z,292
2022-09-23T14:13:09.393Z,286
2022-09-23T14:14:15.673Z,275
2022-09-23T14:15:21.812Z,275
2022-09-23T14:16:28.000Z,264
2022-09-23T14:17:34.158Z,258
2022-09-23T14:18:39.357Z,253
2022-09-23T14:19:45.443Z,247
2022-09-23T14:20:51.537Z,241
2022-09-23T14:21:57.703Z,241
2022-09-23T14:23:04.014Z,241
2022-09-23T14:24:10.136Z,241
2022-09-23T14:25:16.296Z,236
2022-09-23T14:26:22.547Z,236
2022-09-23T14:27:28.710Z,236
2022-09-23T14:28:34.873Z,241
2022-09-23T14:29:40.899Z,241
2022-09-23T14:30:47.219Z,241
2022-09-23T14:31:53.383Z,247
2022-09-23T14:32:58.525Z,247
2022-09-23T14:34:04.577Z,247
2022-09-23T14:35:10.908Z,247
2022-09-23T14:36:17.060Z,247
2022-09-23T14:37:23.196Z,247
2022-09-23T14:38:29.420Z,241
2022-09-23T14:39:35.499Z,241
2022-09-23T14:40:41.760Z,241
2022-09-23T14:41:47.932Z,241
2022-09-23T14:42:54.104Z,247
2022-09-23T14:44:00.125Z,253
2022-09-23T14:45:06.434Z,253
2022-09-23T14:46:12.611Z,247
2022-09-23T14:47:18.623Z,247
2022-09-23T14:48:23.963Z,253
2022-09-23T14:49:30.082Z,253
2022-09-23T14:50:36.303Z,253
2022-09-23T14:51:42.459Z,253
2022-09-23T14:52:48.664Z,253
2022-09-23T14:53:54.815Z,253
2022-09-23T14:55:00.964Z,258
2022-09-23T14:56:07.157Z,258
2022-09-23T14:57:13.286Z,258
2022-09-23T14:58:19.447Z,258
2022-09-23T14:59:25.657Z,253
2022-09-23T15:00:31.672Z,241
2022-09-23T15:01:37.986Z,241
2022-09-23T15:02:43.186Z,230
2022-09-23T15:03:49.356Z,219
2022-09-23T15:04:55.520Z,213
2022-09-23T15:06:01.683Z,202
2022-09-23T15:07:07.864Z,196
2022-09-23T15:08:14.010Z,191
2022-09-23T15:09:20.042Z,180
2022-09-23T15:10:26.343Z,174
2022-09-23T15:11:32.517Z,174
2022-09-23T15:12:38.725Z,174
2022-09-23T15:13:44.855Z,168
2022-09-23T15:14:51.038Z,168
2022-09-23T15:15:57.219Z,168
2022-09-23T15:17:02.392Z,168
2022-09-23T15:18:08.489Z,168
2022-09-23T15:19:14.714Z,168
2022-09-23T15:20:20.907Z,168
2022-09-23T15:21:27.057Z,168
2022-09-23T15:22:32.237Z,168
2022-09-23T15:23:38.434Z,163
2022-09-23T15:24:44.605Z,163
2022-09-23T15:25:50.775Z,157
2022-09-23T15:26:56.946Z,157
2022-09-23T15:28:03.093Z,151
2022-09-23T15:29:09.284Z,151
2022-09-23T15:30:15.294Z,146
2022-09-23T15:31:21.589Z,146
2022-09-23T15:32:27.803Z,140